Time;durP1;ratioP1;P1;durP2;ratioP2;P2;SDS_P1;SDS_P2;PMS_P1;PMS_P2;Temp;Humidity;BMP_temperature;BMP_pressure;BME280_temperature;BME280_humidity;BME280_pressure;Samples;Min_cycle;Max_cycle;Signal;HPM_P1;HPM_P2
2021/12/26 00:01:26;;;;;;;21.00;18.30;;;4.40;91.60;;;;;;4921265;29;20455;-86
2021/12/26 00:03:52;;;;;;;20.27;17.87;;;4.40;91.30;;;;;;4919239;28;20452;-87
2021/12/26 00:06:26;;;;;;;18.50;16.70;;;4.40;91.30;;;;;;4922462;29;20491;-87
2021/12/26 00:08:57;;;;;;;21.10;18.73;;;4.40;90.30;;;;;;4922671;29;20851;-84
2021/12/26 00:11:26;;;;;;;20.27;18.17;;;4.30;91.00;;;;;;4922660;29;20468;-87
2021/12/26 00:13:54;;;;;;;19.67;17.38;;;4.40;91.30;;;;;;4938752;28;20427;-87
2021/12/26 00:16:20;;;;;;;16.93;15.13;;;4.30;90.90;;;;;;4938320;28;20223;-86
2021/12/26 00:18:47;;;;;;;16.07;14.40;;;4.30;90.90;;;;;;4932816;28;20473;-86
2021/12/26 00:21:21;;;;;;;17.73;15.87;;;4.30;91.30;;;;;;4937307;28;20845;-84
2021/12/26 00:23:48;;;;;;;19.43;17.43;;;4.30;91.60;;;;;;4939884;28;20454;-88
2021/12/26 00:26:14;;;;;;;17.87;15.97;;;4.30;91.20;;;;;;4940519;28;20486;-86
2021/12/26 00:28:40;;;;;;;20.83;16.50;;;4.30;90.50;;;;;;4939930;28;20477;-86
2021/12/26 00:31:06;;;;;;;19.33;17.33;;;4.30;90.80;;;;;;4938251;28;20454;-86
2021/12/26 00:33:32;;;;;;;20.07;17.97;;;4.30;90.70;;;;;;4943496;28;20566;-86
2021/12/26 00:35:59;;;;;;;19.60;16.93;;;4.30;91.00;;;;;;4943184;28;20486;-86
2021/12/26 00:38:26;;;;;;;18.27;16.20;;;4.30;91.10;;;;;;4958954;28;20461;-86
2021/12/26 00:40:51;;;;;;;17.93;16.13;;;4.30;91.20;;;;;;4942227;28;20553;-83
2021/12/26 00:43:17;;;;;;;18.20;16.30;;;4.40;90.40;;;;;;4940298;28;20893;-83
2021/12/26 00:45:43;;;;;;;15.93;14.33;;;4.20;90.40;;;;;;4936315;28;20235;-83
2021/12/26 00:48:09;;;;;;;19.07;17.10;;;4.20;91.20;;;;;;4940750;28;20230;-87
2021/12/26 00:50:37;;;;;;;18.40;16.50;;;4.20;91.30;;;;;;4933792;28;20443;-82
2021/12/26 00:53:03;;;;;;;19.60;17.57;;;4.30;91.00;;;;;;4937985;28;20532;-83
2021/12/26 00:55:29;;;;;;;18.20;16.40;;;4.30;91.20;;;;;;4936280;28;20859;-81
2021/12/26 00:57:55;;;;;;;18.87;15.60;;;4.30;91.40;;;;;;4938551;28;20959;-83
2021/12/26 01:00:28;;;;;;;18.63;15.73;;;4.20;90.40;;;;;;4936009;28;20534;-82
2021/12/26 01:02:55;;;;;;;17.60;15.70;;;4.10;89.80;;;;;;4936755;28;20641;-83
2021/12/26 01:05:23;;;;;;;17.13;15.37;;;4.10;91.20;;;;;;4934799;28;20478;-86
2021/12/26 01:08:01;;;;;;;16.43;14.77;;;4.10;91.60;;;;;;4938078;28;20501;-85
2021/12/26 01:10:33;;;;;;;16.97;15.27;;;4.20;91.50;;;;;;4937447;28;21076;-87
2021/12/26 01:12:59;;;;;;;18.67;16.73;;;4.20;91.10;;;;;;4936696;28;20462;-86
2021/12/26 01:15:25;;;;;;;16.33;14.73;;;4.10;90.80;;;;;;4938803;28;20461;-86
2021/12/26 01:17:58;;;;;;;16.47;14.80;;;4.10;91.40;;;;;;4937863;28;20463;-86
2021/12/26 01:20:41;;;;;;;16.97;15.23;;;4.10;90.80;;;;;;4938702;28;20463;-86
2021/12/26 01:23:08;;;;;;;18.50;16.23;;;4.10;91.80;;;;;;4919107;29;20466;-86
2021/12/26 01:25:34;;;;;;;17.13;15.33;;;4.20;92.00;;;;;;4918318;28;20529;-86
2021/12/26 01:28:00;;;;;;;16.07;14.17;;;4.20;90.80;;;;;;4919807;29;20495;-86
2021/12/26 01:30:25;;;;;;;15.77;14.17;;;4.10;89.40;;;;;;4920884;29;20496;-86
2021/12/26 01:32:51;;;;;;;17.20;15.50;;;4.00;90.70;;;;;;4940497;28;21024;-89
2021/12/26 01:35:17;;;;;;;16.33;14.70;;;4.10;91.50;;;;;;4944007;28;20676;-88
2021/12/26 01:37:42;;;;;;;15.40;13.80;;;4.10;91.10;;;;;;4941676;28;20318;-87
2021/12/26 01:40:09;;;;;;;16.23;14.63;;;4.10;91.40;;;;;;4944016;28;20240;-89
2021/12/26 01:42:35;;;;;;;15.87;14.07;;;4.10;91.20;;;;;;4941724;28;20350;-90
2021/12/26 01:45:00;;;;;;;14.47;13.07;;;4.10;91.90;;;;;;4944558;28;20792;-89
2021/12/26 01:47:26;;;;;;;15.53;14.10;;;4.10;91.80;;;;;;4939856;28;20526;-89
2021/12/26 01:49:52;;;;;;;17.23;15.53;;;4.10;91.10;;;;;;4942796;28;20230;-89
2021/12/26 01:52:18;;;;;;;15.27;13.87;;;4.00;90.90;;;;;;4941119;28;21013;-89
2021/12/26 01:54:47;;;;;;;14.70;13.30;;;4.10;91.50;;;;;;4958553;28;20815;-88
2021/12/26 01:57:16;;;;;;;17.07;14.47;;;4.10;91.40;;;;;;4923345;29;20928;-89
2021/12/26 01:59:42;;;;;;;15.13;13.60;;;4.20;91.70;;;;;;4921798;28;20522;-89
2021/12/26 02:02:11;;;;;;;15.33;13.83;;;4.20;90.80;;;;;;4922692;29;20459;-90
2021/12/26 02:04:38;;;;;;;14.20;12.80;;;4.20;90.60;;;;;;4920872;28;20483;-88
2021/12/26 02:07:06;;;;;;;14.10;12.70;;;4.30;90.90;;;;;;4922267;29;20522;-83
2021/12/26 02:09:32;;;;;;;15.27;13.77;;;4.10;90.30;;;;;;4915781;28;20460;-85
2021/12/26 02:11:58;;;;;;;13.83;12.43;;;4.10;90.40;;;;;;4921039;29;20447;-89
2021/12/26 02:14:45;;;;;;;13.77;12.33;;;4.20;91.10;;;;;;4919416;28;20262;-88
2021/12/26 02:17:11;;;;;;;13.20;11.90;;;4.10;91.10;;;;;;4922376;29;20235;-89
2021/12/26 02:19:41;;;;;;;12.87;11.67;;;4.10;91.70;;;;;;4923680;29;20456;-89
2021/12/26 02:22:15;;;;;;;13.30;12.00;;;4.30;91.50;;;;;;4921530;28;20231;-89
2021/12/26 02:27:32;;;;;;;11.90;10.80;;;4.20;90.60;;;;;;4923677;28;20555;-89
2021/12/26 02:30:07;;;;;;;12.53;11.33;;;4.20;89.70;;;;;;4922553;28;20463;-89
2021/12/26 02:32:33;;;;;;;12.50;11.30;;;4.30;90.60;;;;;;4924266;29;20898;-89
2021/12/26 02:34:59;;;;;;;14.10;12.67;;;4.30;90.50;;;;;;4921386;28;20556;-88
2021/12/26 02:37:26;;;;;;;12.83;11.63;;;4.30;90.50;;;;;;4924354;29;20455;-89
2021/12/26 02:39:52;;;;;;;12.70;11.57;;;4.20;89.10;;;;;;4921890;28;20584;-89
2021/12/26 02:42:22;;;;;;;12.50;11.27;;;4.20;90.20;;;;;;4923960;29;20463;-88
2021/12/26 02:44:48;;;;;;;12.43;11.20;;;4.20;90.40;;;;;;4918125;28;20951;-84
2021/12/26 02:47:30;;;;;;;13.77;12.47;;;4.10;89.30;;;;;;4918412;28;20515;-86
2021/12/26 02:50:06;;;;;;;12.40;11.20;;;4.10;89.80;;;;;;4909552;29;20466;-84
2021/12/26 02:52:32;;;;;;;14.93;13.40;;;4.10;90.10;;;;;;4934105;28;20459;-84
2021/12/26 02:54:59;;;;;;;14.53;13.03;;;4.10;90.40;;;;;;4936003;28;20989;-84
2021/12/26 02:57:25;;;;;;;14.77;13.27;;;4.10;90.40;;;;;;4933886;28;20237;-85
2021/12/26 02:59:50;;;;;;;14.90;13.50;;;4.10;90.80;;;;;;4935740;28;20462;-84
2021/12/26 03:02:16;;;;;;;16.37;14.80;;;4.20;90.60;;;;;;4936192;28;20876;-84
2021/12/26 03:04:42;;;;;;;14.87;13.37;;;4.10;90.60;;;;;;4936945;28;20245;-84
2021/12/26 03:07:08;;;;;;;16.63;15.03;;;4.20;90.80;;;;;;4935419;28;21113;-85
2021/12/26 03:09:43;;;;;;;13.90;12.43;;;4.20;90.40;;;;;;4937133;28;20234;-85
2021/12/26 03:12:10;;;;;;;16.30;14.60;;;4.20;90.30;;;;;;4934665;28;20238;-85
2021/12/26 03:14:37;;;;;;;16.10;13.90;;;4.20;91.10;;;;;;4935645;28;20491;-85
2021/12/26 03:17:03;;;;;;;15.77;13.93;;;4.20;90.80;;;;;;4933627;28;20470;-84
2021/12/26 03:19:33;;;;;;;15.20;13.60;;;4.20;91.10;;;;;;4930395;28;20546;-85
2021/12/26 03:21:59;;;;;;;16.00;14.40;;;4.20;90.90;;;;;;4935029;28;20984;-85
2021/12/26 03:24:25;;;;;;;15.63;14.13;;;4.10;90.20;;;;;;4935686;28;20450;-83
2021/12/26 03:27:00;;;;;;;15.07;13.30;;;4.20;90.80;;;;;;4934345;28;20301;-83
2021/12/26 03:29:25;;;;;;;15.30;13.83;;;4.20;91.40;;;;;;4942309;28;20246;-89
2021/12/26 03:31:51;;;;;;;17.77;15.30;;;4.20;90.00;;;;;;4944701;28;20465;-88
2021/12/26 03:34:16;;;;;;;14.97;13.47;;;4.10;90.70;;;;;;4943141;28;20230;-88
2021/12/26 03:36:42;;;;;;;16.30;14.60;;;4.20;91.40;;;;;;4945163;28;20226;-89
2021/12/26 03:39:08;;;;;;;16.10;14.40;;;4.30;91.50;;;;;;4941297;28;20233;-89
2021/12/26 03:41:34;;;;;;;16.37;14.70;;;4.30;90.90;;;;;;4940979;28;20242;-89
2021/12/26 03:44:00;;;;;;;17.40;15.60;;;4.20;90.30;;;;;;4942430;28;20310;-86
2021/12/26 03:46:26;;;;;;;14.70;13.20;;;4.20;90.50;;;;;;4941476;28;20823;-89
2021/12/26 03:48:52;;;;;;;17.40;15.60;;;4.30;91.10;;;;;;4942098;28;20466;-89
2021/12/26 03:51:19;;;;;;;17.10;15.50;;;4.30;90.70;;;;;;4941479;28;20454;-88
2021/12/26 03:53:45;;;;;;;16.50;14.80;;;4.30;90.90;;;;;;4942090;28;20254;-88
2021/12/26 03:56:11;;;;;;;16.73;14.30;;;4.30;90.70;;;;;;4941244;28;20458;-89
2021/12/26 03:58:38;;;;;;;15.43;13.90;;;4.20;90.20;;;;;;4942004;28;20545;-83
2021/12/26 04:01:03;;;;;;;15.87;14.20;;;4.20;91.10;;;;;;4939387;28;20223;-85
2021/12/26 04:03:29;;;;;;;17.43;15.73;;;4.30;91.80;;;;;;4938780;28;20455;-85
2021/12/26 04:05:55;;;;;;;16.73;14.93;;;4.20;91.80;;;;;;4939435;28;20295;-84
2021/12/26 04:08:21;;;;;;;18.50;16.27;;;4.30;91.30;;;;;;4939642;28;20282;-84
2021/12/26 04:10:47;;;;;;;18.70;16.73;;;4.30;91.10;;;;;;4939232;28;20479;-84
2021/12/26 04:13:13;;;;;;;16.30;14.63;;;4.20;91.70;;;;;;4941830;28;20227;-84
2021/12/26 04:15:39;;;;;;;18.40;14.70;;;4.30;91.30;;;;;;4937860;28;20438;-84
2021/12/26 04:18:04;;;;;;;15.83;14.23;;;4.30;91.20;;;;;;4939109;28;20249;-83
2021/12/26 04:20:30;;;;;;;19.30;17.30;;;4.30;90.70;;;;;;4940308;28;20227;-85
2021/12/26 04:22:57;;;;;;;17.60;15.70;;;4.30;90.50;;;;;;4946793;28;20535;-89
2021/12/26 04:25:24;;;;;;;18.90;16.80;;;4.30;91.20;;;;;;4947353;28;20599;-89
2021/12/26 04:27:50;;;;;;;21.60;16.63;;;4.30;91.80;;;;;;4947189;28;20491;-88
2021/12/26 04:30:19;;;;;;;17.40;15.60;;;4.30;91.30;;;;;;4939755;28;20797;-89
2021/12/26 04:32:45;;;;;;;18.40;16.60;;;4.30;90.80;;;;;;4946060;28;20497;-89
2021/12/26 04:35:11;;;;;;;19.50;17.50;;;4.30;90.70;;;;;;4961159;28;20576;-89
2021/12/26 04:37:37;;;;;;;18.77;16.80;;;4.30;90.70;;;;;;4963115;28;20503;-88
2021/12/26 04:40:07;;;;;;;18.13;16.20;;;4.30;91.10;;;;;;4944124;28;20227;-89
2021/12/26 04:42:32;;;;;;;18.00;16.10;;;4.30;91.10;;;;;;4946142;28;20634;-89
2021/12/26 04:44:58;;;;;;;17.57;15.67;;;4.30;91.20;;;;;;4939674;28;21030;-84
2021/12/26 04:47:24;;;;;;;18.77;16.80;;;4.40;91.20;;;;;;4956104;28;20325;-84
2021/12/26 04:49:50;;;;;;;19.37;17.30;;;4.40;90.90;;;;;;4938391;28;21092;-85
2021/12/26 04:52:16;;;;;;;18.27;16.27;;;4.40;91.00;;;;;;4944040;28;20226;-83
2021/12/26 04:54:41;;;;;;;19.87;17.87;;;4.30;90.30;;;;;;4941548;28;20231;-85
2021/12/26 04:57:07;;;;;;;19.63;17.53;;;4.40;90.50;;;;;;4943467;28;20227;-90
2021/12/26 04:59:33;;;;;;;20.77;17.50;;;4.40;91.00;;;;;;4959783;28;20451;-85
2021/12/26 05:01:58;;;;;;;19.90;17.03;;;4.40;90.70;;;;;;4947897;28;20226;-83
2021/12/26 05:04:24;;;;;;;20.53;17.43;;;4.40;91.10;;;;;;4958958;28;20226;-85
2021/12/26 05:06:50;;;;;;;21.97;16.83;;;4.40;90.50;;;;;;4960520;28;20253;-83
2021/12/26 05:09:16;;;;;;;19.63;16.87;;;4.40;91.30;;;;;;4949840;28;20259;-88
2021/12/26 05:11:51;;;;;;;18.77;16.87;;;4.50;91.30;;;;;;4953325;28;20251;-90
2021/12/26 05:14:17;;;;;;;19.53;17.37;;;4.50;91.50;;;;;;4972449;28;20182;-87
2021/12/26 05:16:42;;;;;;;20.53;18.13;;;4.40;91.00;;;;;;4955650;28;20469;-90
2021/12/26 05:19:08;;;;;;;18.90;16.63;;;4.50;90.90;;;;;;4953533;28;20419;-90
2021/12/26 05:21:33;;;;;;;18.73;16.77;;;4.50;91.20;;;;;;4949404;28;20223;-89
2021/12/26 05:23:59;;;;;;;20.90;18.43;;;4.50;91.20;;;;;;4957010;28;20234;-90
2021/12/26 05:26:25;;;;;;;18.80;16.90;;;4.50;90.60;;;;;;4951841;28;20241;-90
2021/12/26 05:28:50;;;;;;;19.83;17.80;;;4.40;91.10;;;;;;4947015;28;20270;-85
2021/12/26 05:31:16;;;;;;;19.67;17.67;;;4.40;90.70;;;;;;4942491;28;20241;-84
2021/12/26 05:33:42;;;;;;;21.07;18.77;;;4.50;91.00;;;;;;4945429;28;20314;-85
2021/12/26 05:36:07;;;;;;;23.03;18.87;;;4.50;90.60;;;;;;4940460;28;20728;-85
2021/12/26 05:38:33;;;;;;;19.83;17.13;;;4.50;90.60;;;;;;4943277;28;20262;-85
2021/12/26 05:40:59;;;;;;;20.20;17.70;;;4.40;90.90;;;;;;4944446;28;20278;-90
2021/12/26 05:43:24;;;;;;;19.43;17.40;;;4.40;91.30;;;;;;4947570;28;20239;-90
2021/12/26 05:45:52;;;;;;;20.03;17.40;;;4.50;92.10;;;;;;4940849;28;20246;-89
2021/12/26 05:48:18;;;;;;;18.73;16.50;;;4.50;90.60;;;;;;4941021;28;20420;-88
2021/12/26 05:50:44;;;;;;;18.53;16.30;;;4.50;91.90;;;;;;4937730;28;20572;-88
2021/12/26 05:53:09;;;;;;;19.20;17.20;;;4.50;91.40;;;;;;4941050;28;20447;-87
2021/12/26 05:55:36;;;;;;;19.97;17.97;;;4.60;91.30;;;;;;4938259;28;20470;-87
2021/12/26 05:58:02;;;;;;;21.07;18.77;;;4.50;91.30;;;;;;4940929;28;20326;-88
2021/12/26 06:00:27;;;;;;;19.20;17.10;;;4.60;91.50;;;;;;4939893;28;20872;-88
2021/12/26 06:02:54;;;;;;;19.53;16.17;;;4.50;91.00;;;;;;4938468;28;20510;-83
2021/12/26 06:05:20;;;;;;;20.83;18.70;;;4.50;91.50;;;;;;4940082;28;20281;-89
2021/12/26 06:07:47;;;;;;;19.20;17.10;;;4.50;91.00;;;;;;4938743;28;20486;-88
2021/12/26 06:10:12;;;;;;;20.70;18.50;;;4.60;91.30;;;;;;4940018;28;20466;-88
2021/12/26 06:12:38;;;;;;;20.93;17.70;;;4.60;91.50;;;;;;4938246;28;20831;-89
2021/12/26 06:15:05;;;;;;;19.80;17.70;;;4.60;91.10;;;;;;4941299;28;20427;-90
2021/12/26 06:17:31;;;;;;;20.27;18.07;;;4.60;91.10;;;;;;4953499;28;20250;-88
2021/12/26 06:19:56;;;;;;;22.30;19.63;;;4.60;91.10;;;;;;4941457;28;20459;-89
2021/12/26 06:22:22;;;;;;;21.97;19.37;;;4.60;90.20;;;;;;4941729;28;20227;-85
2021/12/26 06:24:51;;;;;;;23.60;20.93;;;4.60;91.10;;;;;;4936511;28;20223;-84
2021/12/26 06:27:17;;;;;;;21.63;19.30;;;4.60;91.10;;;;;;4935899;28;20231;-86
2021/12/26 06:29:43;;;;;;;22.53;20.23;;;4.60;90.90;;;;;;4938325;28;20986;-84
2021/12/26 06:32:09;;;;;;;21.17;18.83;;;4.60;91.10;;;;;;4936612;28;20623;-84
2021/12/26 06:34:35;;;;;;;21.27;18.97;;;4.70;91.20;;;;;;4936948;28;20549;-84
2021/12/26 06:37:00;;;;;;;22.67;20.10;;;4.60;90.60;;;;;;4937524;28;20226;-84
2021/12/26 06:39:26;;;;;;;21.73;18.70;;;4.70;90.60;;;;;;4936065;28;20254;-84
2021/12/26 06:41:52;;;;;;;20.63;17.17;;;4.70;90.50;;;;;;4938198;28;20640;-84
2021/12/26 06:44:17;;;;;;;21.67;18.20;;;4.70;90.60;;;;;;4937510;28;20238;-84
2021/12/26 06:46:43;;;;;;;20.23;17.93;;;4.70;90.60;;;;;;4931814;28;20635;-82
2021/12/26 06:49:09;;;;;;;19.70;17.67;;;4.70;90.20;;;;;;4936065;28;20237;-81
2021/12/26 06:51:34;;;;;;;21.80;18.17;;;4.80;90.40;;;;;;4938605;28;20227;-83
2021/12/26 06:54:00;;;;;;;19.93;17.83;;;4.70;90.30;;;;;;4936962;28;20241;-83
2021/12/26 06:56:26;;;;;;;17.83;15.80;;;4.70;90.60;;;;;;4938048;28;20231;-84
2021/12/26 06:58:52;;;;;;;19.67;16.40;;;4.80;90.50;;;;;;4935947;28;20226;-82
2021/12/26 07:01:18;;;;;;;22.13;18.37;;;4.80;90.20;;;;;;4938201;28;20231;-83
2021/12/26 07:03:43;;;;;;;24.60;19.00;;;4.70;90.00;;;;;;4934600;28;20462;-82
2021/12/26 07:06:10;;;;;;;23.90;19.03;;;4.70;90.70;;;;;;4937906;28;20258;-82
2021/12/26 07:08:36;;;;;;;22.93;19.67;;;4.80;90.70;;;;;;4926275;28;20606;-83
2021/12/26 07:11:02;;;;;;;19.70;17.60;;;4.80;90.70;;;;;;4934417;28;20907;-82
2021/12/26 07:13:27;;;;;;;20.80;18.43;;;4.70;91.30;;;;;;4933973;28;20570;-83
2021/12/26 07:15:53;;;;;;;20.83;18.07;;;4.80;91.10;;;;;;4932268;28;20232;-83
2021/12/26 07:18:19;;;;;;;19.20;17.23;;;4.80;90.70;;;;;;4934236;28;20235;-83
2021/12/26 07:20:45;;;;;;;20.90;18.80;;;4.80;91.10;;;;;;4939425;28;20242;-83
2021/12/26 07:23:11;;;;;;;21.30;17.90;;;4.90;91.10;;;;;;4933474;28;24567;-82
2021/12/26 07:25:37;;;;;;;21.20;19.00;;;4.90;90.70;;;;;;4920305;29;20483;-81
2021/12/26 07:28:05;;;;;;;21.60;19.30;;;4.90;90.80;;;;;;4920817;28;20507;-83
2021/12/26 07:30:32;;;;;;;20.80;17.90;;;4.90;91.30;;;;;;4916910;28;21047;-83
2021/12/26 07:32:57;;;;;;;18.63;16.63;;;5.00;91.30;;;;;;4919611;29;20436;-83
2021/12/26 07:35:24;;;;;;;20.90;16.70;;;5.00;90.80;;;;;;4918790;29;20470;-83
2021/12/26 07:37:52;;;;;;;19.13;17.13;;;5.00;90.60;;;;;;4915243;28;20228;-83
2021/12/26 07:40:19;;;;;;;18.83;16.80;;;5.00;91.10;;;;;;4917031;29;20456;-84
2021/12/26 07:42:45;;;;;;;18.03;16.13;;;5.00;90.70;;;;;;4914763;28;21066;-83
2021/12/26 07:45:12;;;;;;;18.60;16.33;;;5.00;90.00;;;;;;4926213;28;20465;-83
2021/12/26 07:47:38;;;;;;;19.17;16.83;;;5.00;90.20;;;;;;4924674;28;21016;-87
2021/12/26 07:50:05;;;;;;;21.20;18.13;;;5.00;90.80;;;;;;4922412;29;20470;-89
2021/12/26 07:52:35;;;;;;;19.33;17.23;;;5.00;91.20;;;;;;4924211;28;20456;-87
2021/12/26 07:55:03;;;;;;;20.63;18.00;;;5.00;91.60;;;;;;4940326;28;20491;-85
2021/12/26 07:57:29;;;;;;;18.60;16.40;;;5.10;91.50;;;;;;4925474;28;20459;-85
2021/12/26 07:59:55;;;;;;;19.10;16.67;;;5.00;90.80;;;;;;4934711;28;20489;-86
2021/12/26 08:02:20;;;;;;;21.20;17.10;;;5.00;90.30;;;;;;4938778;28;20528;-85
2021/12/26 08:04:47;;;;;;;22.17;18.57;;;5.00;90.20;;;;;;4944383;28;20331;-85
2021/12/26 08:07:13;;;;;;;20.77;17.67;;;5.00;90.00;;;;;;4917687;28;20495;-83
2021/12/26 08:09:39;;;;;;;21.57;18.50;;;5.00;90.30;;;;;;4947934;28;20466;-83
2021/12/26 08:12:05;;;;;;;20.10;16.97;;;5.10;90.80;;;;;;4916911;28;20471;-83
2021/12/26 08:14:34;;;;;;;20.63;17.53;;;5.20;90.80;;;;;;4942318;28;20231;-83
2021/12/26 08:17:01;;;;;;;20.60;16.57;;;5.20;90.40;;;;;;4935141;28;20508;-83
2021/12/26 08:19:28;;;;;;;20.70;17.33;;;5.20;90.30;;;;;;4941921;28;20459;-84
2021/12/26 08:21:54;;;;;;;17.30;15.00;;;5.10;90.30;;;;;;4940053;28;20493;-84
2021/12/26 08:24:22;;;;;;;20.80;15.90;;;5.20;90.80;;;;;;4941522;28;20888;-84
2021/12/26 08:26:51;;;;;;;18.13;16.03;;;5.20;91.00;;;;;;4932654;28;20476;-82
2021/12/26 08:29:20;;;;;;;21.93;18.70;;;5.20;90.80;;;;;;4947100;28;20499;-79
2021/12/26 08:31:45;;;;;;;18.67;16.67;;;5.30;90.30;;;;;;4933692;28;20454;-78
2021/12/26 08:34:11;;;;;;;20.30;18.07;;;5.30;88.70;;;;;;4917944;28;20455;-78
2021/12/26 08:36:37;;;;;;;21.33;17.93;;;5.30;88.20;;;;;;4947449;28;20755;-78
2021/12/26 08:39:03;;;;;;;22.00;17.93;;;5.40;89.90;;;;;;4933719;28;20234;-81
2021/12/26 08:41:30;;;;;;;19.87;17.33;;;5.40;90.00;;;;;;4937240;28;20235;-81
2021/12/26 08:43:55;;;;;;;20.50;17.97;;;5.40;89.10;;;;;;4941436;28;20458;-80
2021/12/26 08:46:23;;;;;;;18.73;16.37;;;5.40;89.30;;;;;;4940234;28;20471;-81
2021/12/26 08:48:48;;;;;;;20.00;17.80;;;5.30;88.70;;;;;;4939120;28;22211;-80
2021/12/26 08:51:14;;;;;;;19.77;17.73;;;5.40;90.20;;;;;;4932730;28;20961;-81
2021/12/26 08:53:40;;;;;;;22.53;18.73;;;5.50;90.50;;;;;;4938382;28;20227;-82
2021/12/26 08:56:06;;;;;;;20.53;17.60;;;5.50;90.20;;;;;;4940366;28;20576;-81
2021/12/26 08:58:31;;;;;;;20.43;18.23;;;5.50;89.10;;;;;;4938608;28;20281;-81
2021/12/26 09:00:57;;;;;;;20.03;17.87;;;5.50;90.00;;;;;;4940779;28;20575;-82
2021/12/26 09:03:23;;;;;;;21.07;18.10;;;5.50;88.20;;;;;;4931595;28;20771;-81
2021/12/26 09:05:48;;;;;;;19.23;17.03;;;5.50;88.70;;;;;;4923113;28;20322;-82
2021/12/26 09:08:14;;;;;;;19.83;17.73;;;5.50;88.90;;;;;;4931355;28;20234;-83
2021/12/26 09:10:41;;;;;;;20.13;17.60;;;5.50;88.30;;;;;;4894044;29;20994;-82
2021/12/26 09:13:08;;;;;;;20.37;17.47;;;5.50;87.50;;;;;;4905620;29;20619;-82
2021/12/26 09:15:34;;;;;;;21.43;17.37;;;5.50;88.80;;;;;;4901465;29;20903;-85
2021/12/26 09:18:00;;;;;;;22.93;18.30;;;5.50;88.10;;;;;;4918103;29;20464;-87
2021/12/26 09:20:27;;;;;;;22.30;19.30;;;5.50;89.30;;;;;;4902714;28;20463;-86
2021/12/26 09:22:53;;;;;;;21.10;18.90;;;5.50;89.00;;;;;;4918519;29;20492;-86
2021/12/26 09:25:19;;;;;;;21.90;18.40;;;5.50;89.90;;;;;;4914911;29;20552;-85
2021/12/26 09:27:45;;;;;;;19.90;17.80;;;5.60;90.60;;;;;;4918352;29;20237;-85
2021/12/26 09:30:12;;;;;;;27.60;19.50;;;5.60;90.80;;;;;;4915844;29;20851;-86
2021/12/26 09:32:38;;;;;;;19.27;16.33;;;5.70;90.80;;;;;;4921646;29;20235;-86
2021/12/26 09:35:05;;;;;;;21.13;18.00;;;5.80;90.40;;;;;;4935419;28;20674;-86
2021/12/26 09:37:31;;;;;;;24.90;19.17;;;5.80;90.40;;;;;;4939492;28;20959;-86
2021/12/26 09:39:56;;;;;;;22.63;18.87;;;5.90;90.30;;;;;;4937182;28;20486;-86
2021/12/26 09:42:24;;;;;;;20.83;18.60;;;5.80;87.80;;;;;;4939929;28;20956;-87
2021/12/26 09:44:51;;;;;;;21.17;18.17;;;5.80;88.30;;;;;;4939597;28;20462;-85
2021/12/26 09:47:17;;;;;;;21.10;18.80;;;5.90;88.50;;;;;;4941681;28;20462;-86
2021/12/26 09:49:42;;;;;;;20.23;18.13;;;5.80;88.80;;;;;;4940757;28;20975;-87
2021/12/26 09:52:09;;;;;;;20.83;18.63;;;5.80;89.80;;;;;;4937308;28;20427;-84
2021/12/26 09:54:35;;;;;;;21.43;18.63;;;5.90;89.20;;;;;;4938716;28;20227;-85
2021/12/26 09:57:01;;;;;;;20.97;17.43;;;5.90;89.40;;;;;;4937926;28;20849;-83
2021/12/26 09:59:30;;;;;;;21.03;17.90;;;6.00;89.20;;;;;;4938142;28;20219;-85
2021/12/26 10:01:57;;;;;;;19.37;17.20;;;6.00;88.70;;;;;;4938132;28;20466;-86
2021/12/26 10:04:31;;;;;;;18.63;16.73;;;6.10;90.00;;;;;;4938774;28;20462;-85
2021/12/26 10:06:59;;;;;;;19.23;17.17;;;6.10;89.20;;;;;;4937432;28;20473;-86
2021/12/26 10:09:25;;;;;;;19.67;17.00;;;6.10;89.60;;;;;;4936861;28;20460;-81
2021/12/26 10:11:54;;;;;;;22.40;20.03;;;6.10;88.30;;;;;;4938558;28;20788;-81
2021/12/26 10:14:29;;;;;;;21.20;18.87;;;6.20;88.30;;;;;;4935968;28;20458;-82
2021/12/26 10:17:04;;;;;;;23.27;19.70;;;6.20;87.60;;;;;;4938400;28;20470;-81
2021/12/26 10:19:38;;;;;;;20.13;17.90;;;6.20;87.30;;;;;;4935613;28;20457;-81
2021/12/26 10:22:05;;;;;;;20.40;16.23;;;6.20;88.20;;;;;;4937496;28;20840;-85
2021/12/26 10:24:36;;;;;;;18.80;16.80;;;6.20;87.60;;;;;;4937445;28;20463;-86
2021/12/26 10:27:09;;;;;;;23.33;19.17;;;6.30;88.20;;;;;;4938213;28;20475;-85
2021/12/26 10:29:41;;;;;;;18.63;16.73;;;6.30;87.20;;;;;;4939900;28;20509;-83
2021/12/26 10:32:07;;;;;;;18.23;16.30;;;6.30;86.20;;;;;;4938246;28;20520;-85
2021/12/26 10:34:42;;;;;;;18.43;15.87;;;6.40;88.40;;;;;;4940818;28;20458;-82
2021/12/26 10:37:21;;;;;;;19.20;15.87;;;6.40;87.30;;;;;;4937982;28;20508;-83
2021/12/26 10:39:53;;;;;;;21.17;17.77;;;6.40;86.10;;;;;;4941511;28;20468;-84
2021/12/26 10:42:25;;;;;;;20.83;18.63;;;6.30;86.10;;;;;;4941802;28;20462;-84
2021/12/26 10:44:56;;;;;;;19.63;17.43;;;6.30;85.30;;;;;;4930307;28;20505;-86
2021/12/26 10:47:25;;;;;;;24.67;17.90;;;6.30;85.20;;;;;;4939570;28;20467;-85
2021/12/26 10:49:53;;;;;;;18.40;16.27;;;6.50;87.30;;;;;;4955377;28;20534;-85
2021/12/26 10:52:49;;;;;;;20.53;17.40;;;6.50;86.20;;;;;;4939925;28;20466;-84
2021/12/26 10:55:17;;;;;;;18.03;15.70;;;6.50;86.50;;;;;;4937931;28;20458;-85
2021/12/26 10:57:49;;;;;;;18.53;16.57;;;6.50;85.40;;;;;;4953298;28;20485;-84
2021/12/26 11:00:26;;;;;;;18.10;16.20;;;6.50;84.90;;;;;;4937117;28;20451;-84
2021/12/26 11:02:57;;;;;;;17.20;15.50;;;6.50;85.90;;;;;;4938685;28;21043;-83
2021/12/26 11:05:28;;;;;;;19.80;17.63;;;6.50;85.70;;;;;;4937179;28;20454;-83
2021/12/26 11:08:00;;;;;;;18.03;15.73;;;6.50;85.50;;;;;;4949143;28;20495;-86
2021/12/26 11:10:35;;;;;;;17.23;15.53;;;6.50;85.40;;;;;;4944889;28;20564;-86
2021/12/26 11:13:04;;;;;;;17.97;16.07;;;6.60;85.20;;;;;;4937460;28;20812;-85
2021/12/26 11:15:36;;;;;;;22.30;15.50;;;6.60;84.80;;;;;;4944025;28;21042;-85
2021/12/26 11:18:06;;;;;;;17.20;15.40;;;6.60;85.60;;;;;;4937944;28;20524;-86
2021/12/26 11:20:35;;;;;;;16.57;13.83;;;6.70;85.70;;;;;;4938465;28;20470;-83
2021/12/26 11:23:11;;;;;;;14.77;13.17;;;6.70;84.80;;;;;;4938453;28;20451;-81
2021/12/26 11:25:49;;;;;;;15.53;12.93;;;6.80;85.90;;;;;;4938633;28;20959;-83
2021/12/26 11:28:22;;;;;;;16.03;14.40;;;6.90;85.30;;;;;;4940681;28;20845;-83
2021/12/26 11:30:48;;;;;;;16.03;13.87;;;6.90;85.00;;;;;;4939134;28;20453;-83
2021/12/26 11:33:14;;;;;;;15.37;13.80;;;7.00;85.00;;;;;;4940371;28;20458;-84
2021/12/26 11:35:40;;;;;;;15.80;14.20;;;7.00;84.10;;;;;;4939932;28;20419;-83
2021/12/26 11:38:13;;;;;;;15.20;13.60;;;7.10;85.40;;;;;;4939675;28;20229;-81
2021/12/26 11:40:41;;;;;;;14.00;12.50;;;7.10;85.40;;;;;;4954356;28;20474;-81
2021/12/26 11:43:31;;;;;;;14.97;13.37;;;7.20;84.70;;;;;;4941780;28;20497;-80
2021/12/26 11:46:15;;;;;;;14.87;13.20;;;7.30;83.30;;;;;;4957829;28;20967;-80
2021/12/26 11:49:07;;;;;;;15.27;13.73;;;7.30;85.10;;;;;;4941594;28;20970;-81
2021/12/26 11:52:03;;;;;;;14.97;13.50;;;7.40;84.80;;;;;;4964763;28;20965;-80
2021/12/26 11:54:54;;;;;;;13.67;12.37;;;7.40;83.80;;;;;;4967022;28;20465;-81
2021/12/26 11:57:54;;;;;;;14.43;13.03;;;7.40;82.40;;;;;;4963609;28;20450;-80
2021/12/26 12:00:25;;;;;;;13.77;12.50;;;7.40;81.90;;;;;;4969536;28;20455;-80
2021/12/26 12:02:54;;;;;;;15.53;13.43;;;7.40;83.50;;;;;;4950410;28;20450;-87
2021/12/26 12:05:45;;;;;;;14.27;12.60;;;7.40;84.20;;;;;;4952901;28;20824;-84
2021/12/26 12:08:33;;;;;;;14.00;12.60;;;7.40;84.60;;;;;;4934813;28;20496;-83
2021/12/26 12:11:04;;;;;;;12.40;11.20;;;7.40;83.10;;;;;;4920184;28;20476;-85
2021/12/26 12:13:47;;;;;;;14.83;13.37;;;7.50;84.20;;;;;;4946286;28;21018;-85
2021/12/26 12:16:22;;;;;;;11.80;10.60;;;7.50;84.20;;;;;;4941519;28;20469;-84
2021/12/26 12:18:48;;;;;;;11.30;10.20;;;7.50;83.20;;;;;;4944932;28;20544;-84
2021/12/26 12:21:34;;;;;;;12.53;11.33;;;7.50;84.30;;;;;;4943558;28;21352;-83
2021/12/26 12:24:04;;;;;;;13.53;12.13;;;7.50;84.80;;;;;;4946780;28;20227;-84
2021/12/26 12:26:53;;;;;;;12.67;11.47;;;7.60;85.80;;;;;;4943927;28;20463;-85
2021/12/26 12:29:25;;;;;;;12.50;11.27;;;7.60;85.20;;;;;;4941891;28;20462;-84
2021/12/26 12:32:26;;;;;;;12.87;11.67;;;7.60;82.90;;;;;;4941402;28;21058;-83
2021/12/26 12:35:14;;;;;;;11.67;10.57;;;7.70;85.50;;;;;;4936618;28;20450;-85
2021/12/26 12:37:45;;;;;;;12.80;11.70;;;7.70;84.70;;;;;;4928261;28;20467;-84
2021/12/26 12:40:17;;;;;;;11.90;10.80;;;7.80;84.80;;;;;;4922573;29;20550;-84
2021/12/26 12:43:11;;;;;;;13.10;11.90;;;7.80;84.50;;;;;;4928126;28;20978;-85
2021/12/26 12:45:52;;;;;;;12.60;11.40;;;7.90;85.30;;;;;;4959456;28;20455;-85